DK1MAX-13 Weather Reports


Display with metric or nautical units.
time (UTC)temp
F
wind
direction
speed
MPH
gust
MPH
rain 1hr
in
rain 24hr
in
rain mn
in
humidity
%
barometer
mb
20200809140250 88 83 2.0 4.0 0.00 0.00 0.00 35 1015.5
20200809135240 87 63 3.0 7.0 0.00 0.00 0.00 37 1015.6
20200809134251 88 90 2.0 8.0 0.00 0.00 0.00 36 1015.7
20200809133219 86 77 2.0 10.0 0.00 0.00 0.00 38 1015.7
20200809132312 89 107 1.0 7.0 0.00 0.00 0.00 36 1015.9
20200809131301 88 41 2.0 8.0 0.00 0.00 0.00 37 1015.9
20200809130251 88 89 4.0 8.0 0.00 0.00 0.00 38 1016.3
20200809125240 88 58 2.0 6.0 0.00 0.00 0.00 37 1016.1
20200809124235 88 63 4.0 9.0 0.00 0.00 0.00 37 1016.2
20200809123220 87 8 3.0 9.0 0.00 0.00 0.00 37 1016.3
20200809122311 88 111 2.0 7.0 0.00 0.00 0.00 37 1016.3
20200809121300 87 61 4.0 11.0 0.00 0.00 0.00 37 1016.6
20200809120251 87 76 4.0 13.0 0.00 0.00 0.00 38 1016.4
20200809115240 87 69 2.0 6.0 0.00 0.00 0.00 36 1016.6
20200809114230 87 138 2.0 6.0 0.00 0.00 0.00 40 1016.7
20200809113241 86 82 4.0 9.0 0.00 0.00 0.00 38 1016.7
20200809112312 86 132 2.0 9.0 0.00 0.00 0.00 41 1016.8
20200809111329 86 70 2.0 8.0 0.00 0.00 0.00 42 1016.8
20200809110252 88 147 1.0 4.0 0.00 0.00 0.00 43 1017.2
20200809105240 87 149 2.0 9.0 0.00 0.00 0.00 44 1017.0
20200809104231 85 88 1.0 6.0 0.00 0.00 0.00 46 1017.1
20200809103221 84 335 1.0 3.0 0.00 0.00 0.00 53 1017.3
20200809102312 85 14 2.0 4.0 0.00 0.00 0.00 52 1017.4
20200809101303 84 25 2.0 4.0 0.00 0.00 0.00 54 1017.5
20200809100252 83 314 1.0 3.0 0.00 0.00 0.00 57 1017.4
20200809095243 83 310 2.0 4.0 0.00 0.00 0.00 56 1017.7
20200809094253 82 341 1.0 3.0 0.00 0.00 0.00 57 1017.7
20200809093222 82 347 2.0 6.0 0.00 0.00 0.00 60 1017.9
20200809092313 82 38 1.0 2.0 0.00 0.00 0.00 59 1017.9
20200809091302 80 20 1.0 4.0 0.00 0.00 0.00 63 1018.0
20200809090314 79 304 2.0 4.0 0.00 0.00 0.00 66 1018.0
20200809085243 79 33 1.0 3.0 0.00 0.00 0.00 64 1018.0
20200809084232 79 28 2.0 3.0 0.00 0.00 0.00 63 1018.0
20200809083225 78 42 1.0 2.0 0.00 0.00 0.00 64 1018.2
20200809082313 77 19 1.0 3.0 0.00 0.00 0.00 66 1018.1
20200809081303 76 42 0.0 3.0 0.00 0.00 0.00 68 1018.2
20200809080253 74 44 1.0 3.0 0.00 0.00 0.00 70 1018.1
20200809075242 74 50 2.0 3.0 0.00 0.00 0.00 71 1018.1
20200809074232 72 47 1.0 3.0 0.00 0.00 0.00 74 1018.3
20200809073224 73 43 1.0 3.0 0.00 0.00 0.00 72 1018.3
20200809072313 73 61 1.0 3.0 0.00 0.00 0.00 74 1018.3
20200809071303 71 28 1.0 2.0 0.00 0.00 0.00 76 1018.3
20200809070316 70 179 0.0 1.0 0.00 0.00 0.00 79 1018.3
20200809065244 68 277 2.0 2.0 0.00 0.00 0.00 81 1018.5
20200809064253 67 217 0.0 1.0 0.00 0.00 0.00 83 1018.3
20200809063245 66 217 1.0 2.0 0.00 0.00 0.00 85 1018.4
20200809062318 66 203 1.0 2.0 0.00 0.00 0.00 84 1018.3
20200809061304 66 198 0.0 1.0 0.00 0.00 0.00 84 1018.2
20200809060254 66 198 0.0 1.0 0.00 0.00 0.00 83 1018.2
20200809055307 67 0.0 0.0 0.00 0.00 0.00 80 1018.3
20200809054233 68 0.0 0.0 0.00 0.00 0.00 78 1018.2
20200809053227 65 0.0 0.0 0.00 0.00 0.00 84 1018.3
20200809052313 65 0.0 0.0 0.00 0.00 0.00 83 1018.3
20200809051301 66 0.0 0.0 0.00 0.00 0.00 82 1018.2
20200809050248 64 0.0 0.0 0.00 0.00 0.00 86 1018.0
20200809045239 61 198 0.0 1.0 0.00 0.00 0.00 90 1018.0
20200809044228 60 197 0.0 1.0 0.00 0.00 0.00 92 1018.1
20200809043219 60 0.0 0.0 0.00 0.00 0.00 93 1017.9
20200809042310 59 0.0 0.0 0.00 0.00 0.00 94 1017.9
20200809041259 59 0.0 0.0 0.00 0.00 0.00 94 1017.9
20200809040249 59 0.0 0.0 0.00 0.00 0.00 94 1018.0
20200809035231 59 198 0.0 1.0 0.00 0.00 0.00 94 1017.9
20200809034220 59 188 0.0 1.0 0.00 0.00 0.00 94 1017.8
20200809033311 59 240 0.0 1.0 0.00 0.00 0.00 94 1017.9
20200809032312 60 240 1.0 1.0 0.00 0.00 0.00 93 1017.8
20200809031251 60 104 0.0 1.0 0.00 0.00 0.00 92 1017.9
20200809030241 61 0.0 0.0 0.00 0.00 0.00 92 1017.7
20200809025232 61 109 0.0 1.0 0.00 0.00 0.00 91 1017.6
20200809024221 61 0.0 0.0 0.00 0.00 0.00 90 1017.6
20200809023332 61 0.0 0.0 0.00 0.00 0.00 90 1017.6
20200809022303 62 0.0 0.0 0.00 0.00 0.00 90 1017.5
20200809021255 61 0.0 1.0 0.00 0.00 0.00 91 1017.4
20200809020246 62 39 1.0 2.0 0.00 0.00 0.00 90 1017.5
20200809015232 62 0.0 0.0 0.00 0.00 0.00 89 1017.5
20200809014222 63 177 0.0 1.0 0.00 0.00 0.00 88 1017.4
20200809013315 63 178 0.0 1.0 0.00 0.00 0.00 87 1017.5
20200809012304 62 177 0.0 1.0 0.00 0.00 0.00 89 1017.5
20200809011313 62 204 1.0 2.0 0.00 0.00 0.00 90 1017.6
20200809010244 61 170 1.0 1.0 0.00 0.00 0.00 91 1017.6
20200809005235 62 0.0 0.0 0.00 0.00 0.00 90 1017.4
20200809004223 62 145 0.0 2.0 0.00 0.00 0.00 89 1017.4
20200809003314 64 16 2.0 4.0 0.00 0.00 0.00 84 1017.4
20200809002305 64 197 1.0 2.0 0.00 0.00 0.00 83 1017.3
20200809001254 64 183 1.0 2.0 0.00 0.00 0.00 83 1017.5
20200809000244 64 166 1.0 2.0 0.00 0.00 0.00 85 1017.6
20200808235235 64 189 1.0 2.0 0.00 0.00 0.00 86 1017.7
20200808234224 64 177 0.0 1.0 0.00 0.00 0.00 86 1017.7
20200808233316 64 195 1.0 1.0 0.00 0.00 0.00 85 1017.6
20200808232305 64 15 0.0 2.0 0.00 0.00 0.00 85 1017.7
20200808231255 65 317 1.0 3.0 0.00 0.00 0.00 84 1017.8
20200808230245 65 315 1.0 2.0 0.00 0.00 0.00 83 1017.7
20200808225234 66 196 1.0 2.0 0.00 0.00 0.00 78 1017.5
20200808224225 66 189 0.0 1.0 0.00 0.00 0.00 79 1017.6
20200808223315 67 0.0 0.0 0.00 0.00 0.00 78 1017.5
20200808222306 67 0.0 0.0 0.00 0.00 0.00 76 1017.5
20200808221255 67 0.0 0.0 0.00 0.00 0.00 77 1017.6
20200808220245 68 0.0 0.0 0.00 0.00 0.00 77 1017.6
20200808215236 68 0.0 0.0 0.00 0.00 0.00 74 1017.7
20200808214225 68 0.0 0.0 0.00 0.00 0.00 74 1017.7
20200808213317 69 0.0 0.0 0.00 0.00 0.00 72 1017.6
20200808212306 70 0.0 1.0 0.00 0.00 0.00 68 1017.7
20200808211254 70 191 1.0 2.0 0.00 0.00 0.00 68 1017.7
20200808210243 70 0.0 1.0 0.00 0.00 0.00 69 1017.7
20200808205234 70 0.0 0.0 0.00 0.00 0.00 67 1017.6
20200808204225 70 0.0 1.0 0.00 0.00 0.00 66 1017.7
20200808203315 71 194 1.0 2.0 0.00 0.00 0.00 65 1017.9
20200808202308 72 190 0.0 1.0 0.00 0.00 0.00 63 1017.9
20200808201255 72 175 1.0 1.0 0.00 0.00 0.00 64 1017.9
20200808200245 72 193 1.0 1.0 0.00 0.00 0.00 65 1017.9
20200808195235 72 0.0 0.0 0.00 0.00 0.00 65 1018.0
20200808194227 73 187 0.0 1.0 0.00 0.00 0.00 64 1018.0
20200808193318 74 0.0 0.0 0.00 0.00 0.00 64 1018.0
20200808192306 75 0.0 0.0 0.00 0.00 0.00 63 1017.7
20200808191256 77 122 0.0 1.0 0.00 0.00 0.00 60 1017.7
20200808190257 77 122 0.0 1.0 0.00 0.00 0.00 59 1017.6
20200808185232 79 0.0 0.0 0.00 0.00 0.00 57 1017.6
20200808184223 81 0.0 1.0 0.00 0.00 0.00 54 1017.4
20200808183315 82 0.0 0.0 0.00 0.00 0.00 50 1017.4
20200808182326 84 122 0.0 1.0 0.00 0.00 0.00 45 1017.4
20200808181254 84 122 0.0 1.0 0.00 0.00 0.00 46 1017.4
20200808180246 85 122 0.0 1.0 0.00 0.00 0.00 41 1017.2
20200808175233 86 87 0.0 2.0 0.00 0.00 0.00 40 1017.3
20200808174242 86 108 0.0 2.0 0.00 0.00 0.00 39 1017.2
20200808173315 87 55 0.0 2.0 0.00 0.00 0.00 39 1017.3
20200808172308 87 55 1.0 2.0 0.00 0.00 0.00 37 1017.3
20200808171254 87 127 1.0 3.0 0.00 0.00 0.00 37 1017.1
20200808170242 88 87 0.0 2.0 0.00 0.00 0.00 36 1017.3
20200808165233 88 70 1.0 2.0 0.00 0.00 0.00 35 1017.4
20200808164223 87 76 1.0 3.0 0.00 0.00 0.00 36 1017.3
20200808163314 91 149 0.0 1.0 0.00 0.00 0.00 37 1017.3
20200808162324 89 142 0.0 2.0 0.00 0.00 0.00 36 1017.3
20200808161256 89 134 1.0 2.0 0.00 0.00 0.00 34 1017.5
20200808160244 87 109 1.0 6.0 0.00 0.00 0.00 36 1017.5
20200808155233 88 139 1.0 6.0 0.00 0.00 0.00 37 1017.4
20200808154223 88 129 1.0 4.0 0.00 0.00 0.00 37 1017.4
20200808153316 88 79 2.0 4.0 0.00 0.00 0.00 36 1017.5
20200808152304 91 222 0.0 1.0 0.00 0.00 0.00 36 1017.5
20200808151254 88 147 1.0 4.0 0.00 0.00 0.00 36 1017.6
20200808150246 90 91 1.0 3.0 0.00 0.00 0.00 35 1017.5
20200808145240 87 126 2.0 6.0 0.00 0.00 0.00 35 1017.6
20200808144224 89 84 2.0 7.0 0.00 0.00 0.00 36 1017.5
20200808143315 90 232 0.0 2.0 0.00 0.00 0.00 39 1017.7
20200808142306 89 180 0.0 1.0 0.00 0.00 0.00 39 1017.5
20200808141300 87 134 2.0 4.0 0.00 0.00 0.00 37 1017.8